Flight Track Log - Related Links

Times and Time Zones

All times are in EST time to prevent confusion due to time zone crossing. See the PDT4226 flight status page for this flight to view local times or setup timezone preferences in your user account.

Time Position Orientation Groundspeed Altitude Reporting Facility
EST Latitude Longitude Course Direction KTS MPH feet Rate Location/Type
Mon 02:09:00 PM 40.5580 -75.4835 189° South  Level FlightAware Approximate
Mon 02:10:00 PM 40.4592 -75.5042 189° South  Level FlightAware Approximate
Mon 02:11:00 PM 40.3605 -75.5255 190° South  Level FlightAware Approximate
Mon 02:12:00 PM 40.2618 -75.5474 190° South  Level FlightAware Approximate
Mon 02:13:00 PM 40.1698 -75.5198 143° Southeast  Level FlightAware Approximate
Mon 02:14:00 PM 40.0903 -75.4403 143° Southeast  Level FlightAware Approximate
Mon 02:15:00 PM 40.0109 -75.3608 143° Southeast  Level FlightAware Approximate
Mon 02:16:00 PM 39.9333 -75.2954 90° East  Level FlightAware Approximate
Mon 02:17:00 PM 39.8722 -75.2409 150° Southeast  Level Estimated
Mon 02:18:00 PM 39.8722 -75.2409 150° Southeast  Level Estimated
Mon 02:19:00 PM 39.8722 -75.2409 150° Southeast  Level Estimated
Mon 02:20:00 PM 39.8722 -75.2409 150° Southeast  Level Estimated
Mon 02:21:00 PM 39.8722 -75.2409 150° Southeast  Level Estimated
Mon 02:22:00 PM 39.8722 -75.2409 150° Southeast  Level Estimated
Mon 02:23:00 PM 39.8722 -75.2409 150° Southeast  Level Estimated
Mon 02:24:00 PM 39.8722 -75.2409 150° Southeast  Level Estimated
Mon 02:25:00 PM 39.8722 -75.2409 150° Southeast  Level Estimated
Mon 02:26:00 PM 39.8722 -75.2409 150° Southeast  Level Estimated
Mon 02:27:00 PM 39.8722 -75.2409 150° Southeast  Level Estimated
Mon 02:28:00 PM 39.8722 -75.2409 150° Southeast  Level Estimated
Mon 02:29:00 PM 39.8722 -75.2409 150° Southeast  Level Estimated
Mon 02:30:00 PM 39.8722 -75.2409 150° Southeast  Level Estimated
Mon 02:31:00 PM 39.8722 -75.2409 150° Southeast  Level Estimated
Mon 02:31:41 PM 40.6167 -75.5833 150° Southeast 210 242 7,200  Level Philadelphia TRACON
Mon 02:32:00 PM 39.8722 -75.2409 150° Southeast  Level Estimated
Mon 02:32:53 PM 40.5500 -75.5833 180° South 213 245 6,100  Level Philadelphia TRACON
Mon 02:33:00 PM 39.8722 -75.2409 150° Southeast  Level Estimated
Mon 02:33:53 PM 40.4833 -75.5333 150° Southeast 279 321 5,200  Level Philadelphia TRACON
Mon 02:34:00 PM 39.8722 -75.2409 150° Southeast  Level Estimated
Mon 02:34:53 PM 40.4333 -75.4833 143° Southeast 261 300 5,000  Level Philadelphia TRACON
Mon 02:35:00 PM 39.8722 -75.2409 150° Southeast  Level Estimated
Mon 02:35:47 PM 40.3833 -75.4167 135° Southeast 260 299 5,000  Level Philadelphia TRACON
Mon 02:36:00 PM 39.8722 -75.2409 150° Southeast  Level Estimated
Mon 02:36:53 PM 40.3167 -75.3500 143° Southeast 259 298 5,000  Level Philadelphia TRACON
Mon 02:37:00 PM 39.8722 -75.2409 150° Southeast  Level Estimated
Mon 02:37:53 PM 40.2667 -75.2833 134° Southeast 259 298 5,000  Level Philadelphia TRACON
Mon 02:38:53 PM 40.2000 -75.2333 150° Southeast 249 287 5,000 -300 Level Philadelphia TRACON
Mon 02:39:53 PM 40.1500 -75.2000 153° Southeast 244 281 4,400 -526 Descending Philadelphia TRACON
Mon 02:40:47 PM 40.0833 -75.1833 169° South 251 289 4,000 -200 Descending Philadelphia TRACON
Mon 02:41:53 PM 40.0167 -75.1667 169° South 237 273 4,000  Level Philadelphia TRACON
Mon 02:42:47 PM 39.9667 -75.1500 166° South 206 237 4,000  Level Philadelphia TRACON
Mon 02:44:05 PM 39.8833 -75.1167 163° South 199 229 4,000  Level Philadelphia TRACON
Mon 02:45:00 PM 39.8500 -75.1000 159° South 191 220 4,000 -524 Level Philadelphia TRACON
Mon 02:45:48 PM 39.8000 -75.0833 166° South 202 232 3,100 -1,222 Descending Philadelphia TRACON
Mon 02:46:48 PM 39.7667 -75.1333 229° Southwest 166 191 1,800 -682 Descending Philadelphia TRACON
Mon 02:48:00 PM 39.8000 -75.1833 311° West 143 165 1,600 -318 Descending Philadelphia TRACON
Mon 02:49:00 PM 39.8167 -75.2000 322° Northwest 123 142 1,100 -632 Descending Philadelphia TRACON
Mon 02:49:54 PM 39.8500 -75.2167 339° North 123 142 400 -778 Descending Philadelphia TRACON

Login

Don't have an account? Register now (free) for customized features, flight alerts, and more!